Bremerton National Airport Bremerton US
ICAO: KPWT
IATA: PWT
Category: Medium
Scheduled Services: No

Elevation: 444 ft
TransAlt. 18000 ft.

Airport Communications:
SEATTLE APP/DEP:127.1
AWOS 3:121.2
CTAF/UNICOM:123.05

KPWT Zoom In..

If you have problems with the map follow the link
https://www.worldairports.se/pages/airport.php?
ICAO=KPWT

Runways:

(A) RW 02 length 6000 ft width 150 ft
---- / hdg 17

(B) RW 20 length 6000 ft width 150 ft
ILS 111.10 / hdg 197

Location; KPWT
Day. 19 / Time. 13.19 Zulu
* Altimeter: 30.14
* Temperature: -03° c. -26.6°f.
* Wind from: 000° Speed 00 kn.
Dewpoint: -04° c.
Visibility: 3 Statute Miles.
Clouds: Clear (automated report).
Conditions: Mist.

KPWT 191319Z AUTO 00000KT 3SM BR CLR M03/M04 A3014 RMK AO2 FZRANO


Wind - Calm.

 
 
jpsmedia.com for Web Design worldairports.se 2018   terms of use